createdAt,value
2018-12-04T00:00:17.052Z,91.43
2018-12-04T00:01:17.038Z,91.44
2018-12-04T00:02:17.148Z,91.51
2018-12-04T00:03:16.999Z,91.68
2018-12-04T00:04:17.025Z,91.75
2018-12-04T00:05:16.997Z,91.67
2018-12-04T00:06:17.022Z,91.44
2018-12-04T00:07:17.065Z,91.43
2018-12-04T00:08:17.082Z,91.25
2018-12-04T00:09:17.010Z,91.42
2018-12-04T00:10:16.984Z,91.33
2018-12-04T00:11:16.972Z,91.27
2018-12-04T00:12:17.146Z,91.19
2018-12-04T00:13:17.019Z,91.27
2018-12-04T00:14:17.041Z,91.3
2018-12-04T00:15:17.053Z,91.3
2018-12-04T00:16:17.026Z,91.47
2018-12-04T00:17:17.100Z,91.31
2018-12-04T00:18:17.259Z,91.24
2018-12-04T00:19:17.116Z,91.22
2018-12-04T00:20:17.068Z,91.28
2018-12-04T00:21:17.179Z,91.22
2018-12-04T00:22:16.980Z,91.37
2018-12-04T00:23:17.073Z,91.38
2018-12-04T00:24:17.032Z,91.36
2018-12-04T00:25:17.291Z,91.13
2018-12-04T00:26:17.029Z,91.25
2018-12-04T00:27:16.953Z,91.25
2018-12-04T00:28:17.040Z,91.08
2018-12-04T00:29:16.989Z,91.18
2018-12-04T00:30:17.050Z,91.25
2018-12-04T00:31:17.117Z,91.2
2018-12-04T00:32:17.079Z,91.17
2018-12-04T00:33:17.124Z,91.32
2018-12-04T00:34:17.048Z,91.44
2018-12-04T00:35:17.088Z,91.51
2018-12-04T00:36:17.049Z,91.47
2018-12-04T00:37:16.981Z,91.59
2018-12-04T00:38:17.469Z,91.63
2018-12-04T00:39:17.036Z,91.7
2018-12-04T00:40:17.026Z,91.72
2018-12-04T00:41:17.151Z,91.78
2018-12-04T00:42:17.213Z,91.89
2018-12-04T00:43:17.059Z,91.88
2018-12-04T00:44:17.037Z,91.99
2018-12-04T00:45:16.987Z,91.98
2018-12-04T00:46:17.001Z,91.97
2018-12-04T00:47:16.883Z,91.94
2018-12-04T00:48:17.058Z,91.92
2018-12-04T00:49:16.990Z,92.03
2018-12-04T00:50:17.043Z,91.95
2018-12-04T00:51:16.944Z,92.01
2018-12-04T00:52:17.113Z,92.01
2018-12-04T00:53:17.199Z,92.13
2018-12-04T00:54:17.263Z,92.17
2018-12-04T00:55:16.903Z,92.17
2018-12-04T00:56:17.056Z,92.13
2018-12-04T00:57:17.130Z,92.26
2018-12-04T00:58:17.026Z,92.27
2018-12-04T00:59:17.182Z,92.31
2018-12-04T01:00:17.553Z,92.39
2018-12-04T01:01:16.921Z,92.45
2018-12-04T01:02:17.215Z,92.55
2018-12-04T01:03:17.077Z,92.64
2018-12-04T01:04:16.961Z,92.69
2018-12-04T01:05:16.942Z,92.69
2018-12-04T01:06:17.720Z,92.97
2018-12-04T01:07:17.025Z,93.09
2018-12-04T01:08:17.025Z,93.2
2018-12-04T01:09:16.905Z,93.31
2018-12-04T01:10:17.352Z,93.34
2018-12-04T01:11:16.893Z,93.41
2018-12-04T01:12:17.151Z,93.41
2018-12-04T01:13:17.068Z,93.34
2018-12-04T01:14:17.187Z,93.41
2018-12-04T01:15:17.168Z,93.26
2018-12-04T01:16:17.100Z,93.35
2018-12-04T01:17:16.852Z,93.42
2018-12-04T01:18:16.885Z,93.49
2018-12-04T01:19:16.985Z,93.51
2018-12-04T01:20:16.876Z,93.52
2018-12-04T01:21:16.981Z,93.58
2018-12-04T01:22:17.118Z,93.54
2018-12-04T01:23:16.994Z,93.53
2018-12-04T01:24:17.050Z,93.58
2018-12-04T01:25:17.011Z,93.58
2018-12-04T01:26:17.050Z,93.5
2018-12-04T01:27:17.141Z,93.43
2018-12-04T01:28:16.965Z,93.44
2018-12-04T01:29:16.935Z,93.42
2018-12-04T01:30:17.352Z,93.39
2018-12-04T01:31:17.465Z,93.41
2018-12-04T01:32:17.062Z,93.3
2018-12-04T01:33:17.018Z,93.35
2018-12-04T01:34:16.872Z,93.32
2018-12-04T01:35:17.047Z,93.17
2018-12-04T01:36:17.017Z,93.2
2018-12-04T01:37:17.158Z,93.21
2018-12-04T01:38:16.901Z,93.17
2018-12-04T01:39:16.905Z,93.02
2018-12-04T01:40:16.863Z,92.98
2018-12-04T01:41:16.914Z,92.99
2018-12-04T01:42:16.861Z,93.06
2018-12-04T01:43:16.932Z,93.06
2018-12-04T01:44:16.880Z,92.95
2018-12-04T01:45:16.847Z,92.8
2018-12-04T01:46:16.869Z,92.81
2018-12-04T01:47:16.818Z,92.77
2018-12-04T01:48:17.157Z,92.77
2018-12-04T01:49:16.837Z,92.68
2018-12-04T01:50:16.867Z,92.57
2018-12-04T01:51:16.870Z,92.54
2018-12-04T01:52:16.884Z,92.61
2018-12-04T01:53:17.070Z,92.61
2018-12-04T01:54:16.824Z,92.75
2018-12-04T01:55:16.832Z,92.72
2018-12-04T01:56:16.873Z,92.73
2018-12-04T01:57:16.991Z,92.62
2018-12-04T01:58:16.854Z,92.65
2018-12-04T01:59:16.858Z,92.69
2018-12-04T02:00:17.110Z,92.65
2018-12-04T02:01:17.134Z,92.57
2018-12-04T02:02:16.925Z,92.47
2018-12-04T02:03:17.111Z,92.48
2018-12-04T02:04:16.829Z,92.4
2018-12-04T02:05:17.040Z,92.37
2018-12-04T02:06:16.849Z,92.27
2018-12-04T02:07:17.308Z,92.13
2018-12-04T02:08:17.117Z,92.25
2018-12-04T02:09:16.850Z,92.18
2018-12-04T02:10:17.057Z,92.16
2018-12-04T02:11:17.677Z,92.2
2018-12-04T02:12:17.005Z,92.09
2018-12-04T02:13:16.929Z,92
2018-12-04T02:14:16.916Z,91.86
2018-12-04T02:15:16.841Z,91.92
2018-12-04T02:16:16.781Z,92.06
2018-12-04T02:17:16.821Z,91.83
2018-12-04T02:18:17.007Z,91.91
2018-12-04T02:19:16.904Z,91.96
2018-12-04T02:20:16.772Z,92.02
2018-12-04T02:21:16.915Z,92.06
2018-12-04T02:22:16.838Z,92.19
2018-12-04T02:23:16.837Z,92.06
2018-12-04T02:24:16.865Z,92.13
2018-12-04T02:25:16.852Z,92.25
2018-12-04T02:26:16.795Z,92.18
2018-12-04T02:27:16.974Z,92.2
2018-12-04T02:28:17.077Z,92.21
2018-12-04T02:29:16.927Z,92.34
2018-12-04T02:30:16.883Z,92.43
2018-12-04T02:31:16.784Z,92.38
2018-12-04T02:32:17.065Z,92.46
2018-12-04T02:33:16.777Z,92.57
2018-12-04T02:34:16.989Z,92.7
2018-12-04T02:35:17.299Z,92.9
2018-12-04T02:36:16.887Z,92.83
2018-12-04T02:37:17.010Z,92.81
2018-12-04T02:38:16.984Z,92.74
2018-12-04T02:39:16.841Z,92.67
2018-12-04T02:40:17.119Z,92.68
2018-12-04T02:41:17.107Z,92.71
2018-12-04T02:42:16.999Z,92.51
2018-12-04T02:43:16.814Z,92.48
2018-12-04T02:44:16.806Z,92.56
2018-12-04T02:45:17.019Z,92.58
2018-12-04T02:46:17.023Z,92.54
2018-12-04T02:47:16.929Z,92.66
2018-12-04T02:48:16.769Z,92.63
2018-12-04T02:49:16.859Z,92.61
2018-12-04T02:50:17.089Z,92.75
2018-12-04T02:51:16.898Z,92.5
2018-12-04T02:52:16.845Z,92.53
2018-12-04T02:53:16.845Z,92.45
2018-12-04T02:54:16.843Z,92.53
2018-12-04T02:55:16.726Z,92.5
2018-12-04T02:56:16.821Z,92.52
2018-12-04T02:57:16.938Z,92.66
2018-12-04T02:58:16.767Z,92.56
2018-12-04T02:59:17.043Z,92.42
2018-12-04T03:00:17.197Z,92.45
2018-12-04T03:01:16.950Z,92.48
2018-12-04T03:02:16.880Z,92.45
2018-12-04T03:03:16.730Z,92.5
2018-12-04T03:04:16.899Z,92.56
2018-12-04T03:05:16.790Z,92.61
2018-12-04T03:06:16.986Z,92.54
2018-12-04T03:07:16.818Z,92.36
2018-12-04T03:08:16.806Z,92.37
2018-12-04T03:09:16.792Z,92.38
2018-12-04T03:10:16.765Z,92.44
2018-12-04T03:11:16.807Z,92.52
2018-12-04T03:12:16.774Z,92.51
2018-12-04T03:13:16.742Z,92.52
2018-12-04T03:14:16.970Z,92.57
2018-12-04T03:15:16.788Z,92.56
2018-12-04T03:16:17.065Z,92.63
2018-12-04T03:17:16.771Z,92.76
2018-12-04T03:18:16.749Z,92.73
2018-12-04T03:19:16.759Z,92.77
2018-12-04T03:20:16.787Z,92.69
2018-12-04T03:21:16.768Z,92.76
2018-12-04T03:22:16.737Z,92.74
2018-12-04T03:23:16.697Z,92.84
2018-12-04T03:24:16.985Z,92.88
2018-12-04T03:25:16.771Z,92.86
2018-12-04T03:26:16.820Z,92.97
2018-12-04T03:27:16.727Z,92.88
2018-12-04T03:28:16.756Z,92.88
2018-12-04T03:29:16.749Z,92.85
2018-12-04T03:30:16.744Z,92.84
2018-12-04T03:31:16.742Z,92.72
2018-12-04T03:32:16.746Z,92.79
2018-12-04T03:33:16.743Z,92.82
2018-12-04T03:34:16.739Z,92.91
2018-12-04T03:35:16.768Z,93.04
2018-12-04T03:36:16.835Z,93.1
2018-12-04T03:37:17.035Z,93.02
2018-12-04T03:38:16.701Z,93.01
2018-12-04T03:39:16.791Z,93.09
2018-12-04T03:40:16.693Z,93.04
2018-12-04T03:41:16.783Z,93.08
2018-12-04T03:42:16.694Z,93.25
2018-12-04T03:43:17.024Z,93.13
2018-12-04T03:44:16.710Z,93.21
2018-12-04T03:45:16.821Z,93.21
2018-12-04T03:46:16.752Z,93.16
2018-12-04T03:47:16.846Z,93.24
2018-12-04T03:48:16.771Z,93.18
2018-12-04T03:49:16.927Z,93.14
2018-12-04T03:50:16.813Z,93.07
2018-12-04T03:51:16.752Z,93.36
2018-12-04T03:52:16.798Z,93.7
2018-12-04T03:53:16.891Z,93.83
2018-12-04T03:54:16.794Z,93.7
2018-12-04T03:55:17.023Z,94.04
2018-12-04T03:56:16.911Z,93.93
2018-12-04T03:57:16.871Z,93.84
2018-12-04T03:58:16.668Z,93.68
2018-12-04T03:59:16.918Z,93.54
2018-12-04T04:00:16.833Z,93.42
2018-12-04T04:01:17.034Z,93.38
2018-12-04T04:02:16.795Z,93.43
2018-12-04T04:03:16.771Z,93.62
2018-12-04T04:04:16.692Z,93.54
2018-12-04T04:05:16.975Z,93.46
2018-12-04T04:06:16.729Z,93.6
2018-12-04T04:07:16.734Z,93.47
2018-12-04T04:08:17.011Z,93.56
2018-12-04T04:09:16.784Z,93.48
2018-12-04T04:10:17.509Z,93.49
2018-12-04T04:11:16.768Z,93.12
2018-12-04T04:12:16.704Z,93.13
2018-12-04T04:13:16.677Z,93.26
2018-12-04T04:14:16.807Z,93.14
2018-12-04T04:15:16.709Z,93.17
2018-12-04T04:16:16.936Z,93.24
2018-12-04T04:17:16.867Z,93.07
2018-12-04T04:18:16.641Z,93.1
2018-12-04T04:19:16.641Z,92.94
2018-12-04T04:20:16.720Z,92.89
2018-12-04T04:21:16.712Z,92.92
2018-12-04T04:22:16.722Z,92.95
2018-12-04T04:23:16.756Z,92.96
2018-12-04T04:24:16.689Z,92.56
2018-12-04T04:25:16.703Z,92.47
2018-12-04T04:26:17.162Z,92.54
2018-12-04T04:27:16.771Z,92.67
2018-12-04T04:28:16.718Z,92.48
2018-12-04T04:29:16.694Z,92.43
2018-12-04T04:30:16.844Z,92.36
2018-12-04T04:31:16.710Z,92.41
2018-12-04T04:32:16.745Z,92.44
2018-12-04T04:33:16.801Z,92.47
2018-12-04T04:34:16.698Z,92.3
2018-12-04T04:35:16.650Z,92.58
2018-12-04T04:36:16.687Z,92.49
2018-12-04T04:37:16.752Z,92.5
2018-12-04T04:38:16.805Z,92.54
2018-12-04T04:39:16.734Z,92.51
2018-12-04T04:40:16.600Z,92.51
2018-12-04T04:41:16.811Z,92.5
2018-12-04T04:42:16.659Z,92.27
2018-12-04T04:43:16.672Z,92.08
2018-12-04T04:44:17.059Z,92.1
2018-12-04T04:45:16.827Z,92.13
2018-12-04T04:46:16.805Z,92.2
2018-12-04T04:47:16.665Z,92.31
2018-12-04T04:48:16.610Z,92.28
2018-12-04T04:49:16.615Z,92.24
2018-12-04T04:50:16.624Z,92.22
2018-12-04T04:51:16.685Z,92.3
2018-12-04T04:52:16.612Z,92.31
2018-12-04T04:53:16.605Z,92.45
2018-12-04T04:54:16.953Z,92.47
2018-12-04T04:55:16.629Z,92.15
2018-12-04T04:56:16.629Z,92.17
2018-12-04T04:57:16.617Z,92.03
2018-12-04T04:58:16.645Z,92.21
2018-12-04T04:59:16.587Z,92.29
2018-12-04T05:00:16.719Z,92.32
2018-12-04T05:01:16.827Z,92.46
2018-12-04T05:02:16.614Z,92.53
2018-12-04T05:03:16.626Z,92.53
2018-12-04T05:04:16.733Z,92.51
2018-12-04T05:05:16.609Z,92.45
2018-12-04T05:06:16.830Z,92.5
2018-12-04T05:07:16.569Z,92.27
2018-12-04T05:08:16.576Z,92.13
2018-12-04T05:09:16.593Z,92.32
2018-12-04T05:10:16.617Z,92.4
2018-12-04T05:11:16.711Z,92.32
2018-12-04T05:12:17.199Z,92.11
2018-12-04T05:13:16.759Z,92.3
2018-12-04T05:14:16.695Z,92.34
2018-12-04T05:15:16.658Z,92.29
2018-12-04T05:16:16.734Z,92.28
2018-12-04T05:17:16.735Z,92.28
2018-12-04T05:18:16.642Z,92.44
2018-12-04T05:19:16.721Z,92.46
2018-12-04T05:20:16.727Z,92.41
2018-12-04T05:21:16.604Z,92.51
2018-12-04T05:22:16.683Z,92.42
2018-12-04T05:23:16.821Z,92.4
2018-12-04T05:24:17.123Z,92.49
2018-12-04T05:25:16.550Z,92.51
2018-12-04T05:26:16.691Z,92.51
2018-12-04T05:27:16.634Z,92.53
2018-12-04T05:28:16.724Z,92.56
2018-12-04T05:29:16.583Z,92.34
2018-12-04T05:30:16.591Z,92.44
2018-12-04T05:31:16.663Z,92.3
2018-12-04T05:32:16.567Z,92.1
2018-12-04T05:33:16.629Z,92.09
2018-12-04T05:34:16.615Z,92.16
2018-12-04T05:35:17.270Z,92.12
2018-12-04T05:36:16.731Z,92.16
2018-12-04T05:37:16.980Z,92.2
2018-12-04T05:38:16.748Z,92.16
2018-12-04T05:39:16.532Z,92.14
2018-12-04T05:40:16.588Z,91.85
2018-12-04T05:41:16.811Z,92
2018-12-04T05:42:16.809Z,91.98
2018-12-04T05:43:16.756Z,91.86
2018-12-04T05:44:19.615Z,92.06
2018-12-04T05:45:16.726Z,91.91
2018-12-04T05:46:16.728Z,91.87
2018-12-04T05:47:16.725Z,92.01
2018-12-04T05:48:16.589Z,91.96
2018-12-04T05:49:16.703Z,92.09
2018-12-04T05:50:16.521Z,91.98
2018-12-04T05:51:16.561Z,92.03
2018-12-04T05:52:16.872Z,91.85
2018-12-04T05:53:16.908Z,91.4
2018-12-04T05:54:16.713Z,91.48
2018-12-04T05:55:16.588Z,91.53
2018-12-04T05:56:16.548Z,91.55
2018-12-04T05:57:16.790Z,91.53
2018-12-04T05:58:16.678Z,91.39
2018-12-04T05:59:16.625Z,91.37
2018-12-04T06:00:16.540Z,91.03
2018-12-04T06:01:16.589Z,90.61
2018-12-04T06:02:16.689Z,90.7
2018-12-04T06:03:16.875Z,90.35
2018-12-04T06:04:16.582Z,90.46
2018-12-04T06:05:16.955Z,90.05
2018-12-04T06:06:16.828Z,89.91
2018-12-04T06:07:16.611Z,90.19
2018-12-04T06:08:16.783Z,90.53
2018-12-04T06:09:16.519Z,90.49
2018-12-04T06:10:17.333Z,90.07
2018-12-04T06:11:16.565Z,90.5
2018-12-04T06:12:16.527Z,89.95
2018-12-04T06:13:16.503Z,90.05
2018-12-04T06:14:16.604Z,90.39
2018-12-04T06:15:16.612Z,89.88
2018-12-04T06:16:16.524Z,89.87
2018-12-04T06:17:16.696Z,89.95
2018-12-04T06:18:16.618Z,89.66
2018-12-04T06:19:16.522Z,88.94
2018-12-04T06:20:16.673Z,89.06
2018-12-04T06:21:16.590Z,89.61
2018-12-04T06:22:16.716Z,89.87
2018-12-04T06:23:16.555Z,90.14
2018-12-04T06:24:16.593Z,89.8
2018-12-04T06:25:16.547Z,89.78
2018-12-04T06:26:16.572Z,89.72
2018-12-04T06:27:16.579Z,89.66
2018-12-04T06:28:16.527Z,89.74
2018-12-04T06:29:16.483Z,89.51
2018-12-04T06:30:16.925Z,88.42
2018-12-04T06:31:16.536Z,89.11
2018-12-04T06:32:16.534Z,88.48
2018-12-04T06:33:16.531Z,88.53
2018-12-04T06:34:16.543Z,88.6
2018-12-04T06:35:16.463Z,88.6
2018-12-04T06:36:16.474Z,88.98
2018-12-04T06:37:16.552Z,88.82
2018-12-04T06:38:16.540Z,88.75
2018-12-04T06:39:16.493Z,88.45
2018-12-04T06:40:16.500Z,88.87
2018-12-04T06:41:16.479Z,88.81
2018-12-04T06:42:16.462Z,88.18
2018-12-04T06:43:16.494Z,87.76
2018-12-04T06:44:16.516Z,87.89
2018-12-04T06:45:16.468Z,87.82
2018-12-04T06:46:16.494Z,87.53
2018-12-04T06:47:16.527Z,87.76
2018-12-04T06:48:16.562Z,88
2018-12-04T06:49:16.477Z,87.46
2018-12-04T06:50:18.451Z,87.53
2018-12-04T06:51:16.460Z,88.06
2018-12-04T06:52:16.538Z,87.49
2018-12-04T06:53:16.679Z,86.95
2018-12-04T06:54:16.618Z,87.15
2018-12-04T06:55:16.470Z,87
2018-12-04T06:56:16.487Z,86.97
2018-12-04T06:57:16.629Z,86.99
2018-12-04T06:58:16.565Z,86.7
2018-12-04T06:59:16.757Z,86.65
2018-12-04T07:00:16.481Z,86.78
2018-12-04T07:01:16.522Z,86.29
2018-12-04T07:02:16.494Z,86.49
2018-12-04T07:03:16.628Z,86.73
2018-12-04T07:04:16.509Z,86.97
2018-12-04T07:05:16.601Z,86.2
2018-12-04T07:06:16.485Z,86.22
2018-12-04T07:07:16.802Z,86.29
2018-12-04T07:08:16.525Z,86.63
2018-12-04T07:09:16.525Z,86.32
2018-12-04T07:10:16.462Z,86.43
2018-12-04T07:11:16.544Z,86.38
2018-12-04T07:12:16.599Z,86.49
2018-12-04T07:13:16.600Z,86.59
2018-12-04T07:14:16.432Z,86.63
2018-12-04T07:15:16.758Z,86.52
2018-12-04T07:16:16.838Z,86.89
2018-12-04T07:17:16.501Z,86.77
2018-12-04T07:18:16.699Z,86.95
2018-12-04T07:19:16.613Z,87.34
2018-12-04T07:20:16.528Z,87.01
2018-12-04T07:21:16.453Z,87.08
2018-12-04T07:22:16.506Z,87.26
2018-12-04T07:23:16.529Z,87.45
2018-12-04T07:24:16.547Z,87.36
2018-12-04T07:25:17.325Z,86.83
2018-12-04T07:26:16.488Z,86.21
2018-12-04T07:27:16.932Z,86.09
2018-12-04T07:28:16.445Z,85.88
2018-12-04T07:29:16.589Z,86.21
2018-12-04T07:30:16.440Z,86.6
2018-12-04T07:31:16.562Z,86.54
2018-12-04T07:32:16.443Z,86.81
2018-12-04T07:33:16.405Z,85.51
2018-12-04T07:34:16.650Z,85.68
2018-12-04T07:35:16.485Z,85.28
2018-12-04T07:36:16.815Z,85.49
2018-12-04T07:37:16.416Z,85.13
2018-12-04T07:38:16.507Z,85.29
2018-12-04T07:39:16.391Z,85.29
2018-12-04T07:40:16.454Z,85.09
2018-12-04T07:41:16.544Z,84.89
2018-12-04T07:42:16.521Z,85.07
2018-12-04T07:43:16.566Z,85.18
2018-12-04T07:44:16.627Z,85.33
2018-12-04T07:45:16.506Z,85.24
2018-12-04T07:46:16.539Z,85.57
2018-12-04T07:47:16.667Z,85.19
2018-12-04T07:48:16.574Z,85.34
2018-12-04T07:49:16.500Z,84.91
2018-12-04T07:50:16.467Z,85.17
2018-12-04T07:51:16.697Z,85.55
2018-12-04T07:52:16.584Z,84.91
2018-12-04T07:53:16.592Z,84.95
2018-12-04T07:54:16.564Z,85.1
2018-12-04T07:55:16.460Z,84.91
2018-12-04T07:56:16.508Z,85.1
2018-12-04T07:57:16.375Z,85.19
2018-12-04T07:58:16.548Z,84.81
2018-12-04T07:59:16.649Z,85.2
2018-12-04T08:00:16.586Z,85.19
2018-12-04T08:01:16.368Z,84.81
2018-12-04T08:02:16.397Z,84.73
2018-12-04T08:03:16.601Z,84.96
2018-12-04T08:04:16.553Z,84.34
2018-12-04T08:05:16.497Z,84.37
2018-12-04T08:06:16.428Z,84.66
2018-12-04T08:07:16.398Z,84.56
2018-12-04T08:08:16.339Z,84.47
2018-12-04T08:09:16.380Z,84.33
2018-12-04T08:10:16.370Z,84.06
2018-12-04T08:11:16.359Z,83.99
2018-12-04T08:12:16.353Z,84.1
2018-12-04T08:13:16.478Z,83.95
2018-12-04T08:14:16.415Z,84.15
2018-12-04T08:15:16.320Z,84.38
2018-12-04T08:16:16.376Z,84.75
2018-12-04T08:17:16.755Z,84.33
2018-12-04T08:18:16.398Z,84.12
2018-12-04T08:19:16.346Z,83.97
2018-12-04T08:20:16.369Z,84.27
2018-12-04T08:21:16.374Z,83.96
2018-12-04T08:22:16.402Z,83.59
2018-12-04T08:23:16.377Z,83.6
2018-12-04T08:24:16.605Z,83.96
2018-12-04T08:25:16.386Z,84.11
2018-12-04T08:26:16.397Z,83.93
2018-12-04T08:27:16.556Z,83.74
2018-12-04T08:28:16.415Z,83.55
2018-12-04T08:29:16.350Z,84.06
2018-12-04T08:30:16.386Z,83.91
2018-12-04T08:31:16.354Z,84.08
2018-12-04T08:32:16.438Z,84.5
2018-12-04T08:33:16.453Z,84.14
2018-12-04T08:34:16.536Z,83.9
2018-12-04T08:35:16.416Z,83.58
2018-12-04T08:36:16.424Z,83.74
2018-12-04T08:37:16.578Z,83.9
2018-12-04T08:38:16.327Z,82.81
2018-12-04T08:39:16.393Z,82.55
2018-12-04T08:40:16.520Z,82.43
2018-12-04T08:41:16.321Z,82.78
2018-12-04T08:42:16.481Z,82.91
2018-12-04T08:43:16.463Z,81.67
2018-12-04T08:44:16.621Z,81.81
2018-12-04T08:45:16.380Z,81.72
2018-12-04T08:46:16.449Z,81.94
2018-12-04T08:47:17.187Z,82.23
2018-12-04T08:48:17.090Z,81.62
2018-12-04T08:49:16.613Z,82.26
2018-12-04T08:50:16.413Z,82.01
2018-12-04T08:51:16.393Z,82.11
2018-12-04T08:52:16.381Z,82.12
2018-12-04T08:53:16.492Z,82.76
2018-12-04T08:54:16.340Z,82.83
2018-12-04T08:55:16.356Z,83.09
2018-12-04T08:56:16.786Z,83.42
2018-12-04T08:57:16.571Z,83.74
2018-12-04T08:58:16.549Z,83.5
2018-12-04T08:59:16.486Z,83.27
2018-12-04T09:00:16.303Z,83.49
2018-12-04T09:01:16.388Z,83.52
2018-12-04T09:02:16.794Z,84.06
2018-12-04T09:03:16.428Z,84.03
2018-12-04T09:04:16.415Z,84.35
2018-12-04T09:05:16.593Z,84.74
2018-12-04T09:06:16.325Z,85.32
2018-12-04T09:07:17.141Z,85.16
2018-12-04T09:08:16.367Z,85.27
2018-12-04T09:09:16.296Z,85
2018-12-04T09:10:16.490Z,84.64
2018-12-04T09:11:16.467Z,84.28
2018-12-04T09:12:16.389Z,83.46
2018-12-04T09:13:16.338Z,83.82
2018-12-04T09:14:16.420Z,84.88
2018-12-04T09:15:16.460Z,85.22
2018-12-04T09:16:16.451Z,85.11
2018-12-04T09:17:16.338Z,85.36
2018-12-04T09:18:16.477Z,85.87
2018-12-04T09:19:16.344Z,84.86
2018-12-04T09:20:17.460Z,85.02
2018-12-04T09:21:16.582Z,85.06
2018-12-04T09:22:16.477Z,84.61
2018-12-04T09:23:16.494Z,85.04
2018-12-04T09:24:16.899Z,84.96
2018-12-04T09:25:16.357Z,85.24
2018-12-04T09:26:16.813Z,85.41
2018-12-04T09:27:16.540Z,84.38
2018-12-04T09:28:16.628Z,84.97
2018-12-04T09:29:16.597Z,85.13
2018-12-04T09:30:16.567Z,84.85
2018-12-04T09:31:16.490Z,85.46
2018-12-04T09:32:16.440Z,85.81
2018-12-04T09:33:16.710Z,85.9
2018-12-04T09:34:16.752Z,85.84
2018-12-04T09:35:16.275Z,86.07
2018-12-04T09:36:17.142Z,85.22
2018-12-04T09:37:16.735Z,85.4
2018-12-04T09:38:16.309Z,84.77
2018-12-04T09:39:16.272Z,85.52
2018-12-04T09:40:16.270Z,85.29
2018-12-04T09:41:16.665Z,85.25
2018-12-04T09:42:16.236Z,85.15
2018-12-04T09:43:16.236Z,85.66
2018-12-04T09:44:16.289Z,85.47
2018-12-04T09:45:16.254Z,85.61
2018-12-04T09:46:16.859Z,86.14
2018-12-04T09:47:16.975Z,86.14
2018-12-04T09:48:16.293Z,86.09
2018-12-04T09:49:16.238Z,85.95
2018-12-04T09:50:16.311Z,85.87
2018-12-04T09:51:16.302Z,86.36
2018-12-04T09:52:16.205Z,86.53
2018-12-04T09:53:16.246Z,86.48
2018-12-04T09:54:16.319Z,87.1
2018-12-04T09:55:16.230Z,86.78
2018-12-04T09:56:16.243Z,86.38
2018-12-04T09:57:16.229Z,86.26
2018-12-04T09:58:16.212Z,85.94
2018-12-04T09:59:16.438Z,86.49
2018-12-04T10:00:16.234Z,86.25
2018-12-04T10:01:16.271Z,85.19
2018-12-04T10:02:16.253Z,86
2018-12-04T10:03:16.626Z,85.81
2018-12-04T10:04:16.185Z,86
2018-12-04T10:05:16.277Z,86.33
2018-12-04T10:06:16.357Z,85.65
2018-12-04T10:07:16.418Z,85.78
2018-12-04T10:08:16.262Z,86.04
2018-12-04T10:09:16.270Z,85.57
2018-12-04T10:10:16.281Z,85.31
2018-12-04T10:11:16.495Z,85.61
2018-12-04T10:12:16.299Z,85.57
2018-12-04T10:13:16.372Z,85.99
2018-12-04T10:14:16.491Z,85.86
2018-12-04T10:15:17.056Z,86.21
2018-12-04T10:16:16.428Z,86
2018-12-04T10:17:16.334Z,85.37
2018-12-04T10:18:16.235Z,85.52
2018-12-04T10:19:16.322Z,85.62
2018-12-04T10:20:16.673Z,84.53
2018-12-04T10:21:16.206Z,85.76
2018-12-04T10:22:16.687Z,84.81
2018-12-04T10:23:16.293Z,84.26
2018-12-04T10:24:16.507Z,84.38
2018-12-04T10:25:16.804Z,84.58
2018-12-04T10:26:16.451Z,84.2
2018-12-04T10:27:16.436Z,83.73
2018-12-04T10:28:16.340Z,83.97
2018-12-04T10:29:16.554Z,84.06
2018-12-04T10:30:16.483Z,84.94
2018-12-04T10:31:16.654Z,85
2018-12-04T10:32:16.528Z,85.2
2018-12-04T10:33:18.631Z,85.43
2018-12-04T10:34:16.245Z,84.77
2018-12-04T10:35:16.562Z,84.42
2018-12-04T10:36:16.545Z,85.2
2018-12-04T10:37:16.350Z,84.69
2018-12-04T10:38:16.418Z,84.99
2018-12-04T10:39:16.160Z,85.57
2018-12-04T10:40:16.534Z,86.33
2018-12-04T10:41:16.441Z,85.9
2018-12-04T10:42:16.333Z,85.21
2018-12-04T10:43:16.185Z,85.54
2018-12-04T10:44:16.394Z,85.34
2018-12-04T10:45:16.298Z,84.94
2018-12-04T10:46:16.361Z,85.22
2018-12-04T10:47:16.384Z,85.23
2018-12-04T10:48:16.224Z,85.19
2018-12-04T10:49:16.575Z,85.23
2018-12-04T10:50:16.222Z,85.86
2018-12-04T10:51:16.247Z,85.65
2018-12-04T10:52:16.375Z,86
2018-12-04T10:53:16.226Z,85.86
2018-12-04T10:54:17.056Z,84.98
2018-12-04T10:55:16.273Z,84.84
2018-12-04T10:56:16.194Z,85.14
2018-12-04T10:57:16.444Z,85.34
2018-12-04T10:58:16.491Z,85.92
2018-12-04T10:59:16.425Z,86.07
2018-12-04T11:00:16.481Z,85.98
2018-12-04T11:01:16.483Z,85.59
2018-12-04T11:02:16.413Z,85.47
2018-12-04T11:03:16.187Z,86.22
2018-12-04T11:04:16.366Z,86.28
2018-12-04T11:05:16.141Z,86.65
2018-12-04T11:06:17.128Z,86.29
2018-12-04T11:07:16.126Z,86.69
2018-12-04T11:08:16.131Z,86.37
2018-12-04T11:09:16.397Z,86.89
2018-12-04T11:10:16.318Z,86.32
2018-12-04T11:11:16.306Z,86.27
2018-12-04T11:12:16.979Z,85.5
2018-12-04T11:13:17.192Z,85.86
2018-12-04T11:14:16.456Z,85.41
2018-12-04T11:15:16.187Z,85.84
2018-12-04T11:16:17.094Z,85.15
2018-12-04T11:17:16.100Z,85.71
2018-12-04T11:18:17.088Z,85.59
2018-12-04T11:19:17.291Z,85.14
2018-12-04T11:20:19.079Z,85.33
2018-12-04T11:21:16.559Z,84.44
2018-12-04T11:22:18.910Z,84.58
2018-12-04T11:23:16.178Z,84.35
2018-12-04T11:24:16.150Z,84.88
2018-12-04T11:25:16.186Z,84.51
2018-12-04T11:26:16.183Z,85.18
2018-12-04T11:27:16.162Z,85.02
2018-12-04T11:28:16.220Z,85.08
2018-12-04T11:29:16.295Z,85.23
2018-12-04T11:30:16.134Z,85.55
2018-12-04T11:31:16.116Z,85.37
2018-12-04T11:32:16.129Z,85.26
2018-12-04T11:33:16.131Z,85.39
2018-12-04T11:34:16.090Z,84.12
2018-12-04T11:35:16.131Z,84.55
2018-12-04T11:36:16.292Z,84.68
2018-12-04T11:37:16.179Z,84.71
2018-12-04T11:38:16.122Z,84.14
2018-12-04T11:39:16.232Z,84.39
2018-12-04T11:40:16.183Z,84.42
2018-12-04T11:41:16.103Z,84.53
2018-12-04T11:42:16.303Z,84.86
2018-12-04T11:43:16.105Z,84.53
2018-12-04T11:44:16.366Z,84.09
2018-12-04T11:45:16.273Z,84.27
2018-12-04T11:46:16.129Z,84.47
2018-12-04T11:47:16.462Z,84.57
2018-12-04T11:48:16.317Z,84.73
2018-12-04T11:49:16.619Z,83.56
2018-12-04T11:50:16.601Z,83.88
2018-12-04T11:51:16.362Z,83.36
2018-12-04T11:52:16.248Z,82.87
2018-12-04T11:53:16.183Z,83.04
2018-12-04T11:54:16.972Z,83.29
2018-12-04T11:55:16.435Z,83.37
2018-12-04T11:56:16.460Z,82.98
2018-12-04T11:57:16.169Z,82.72
2018-12-04T11:58:16.377Z,82.5
2018-12-04T11:59:16.342Z,82.48
2018-12-04T12:00:16.221Z,83.08
2018-12-04T12:01:16.451Z,82.98
2018-12-04T12:02:16.112Z,82.98
2018-12-04T12:03:16.231Z,83.4
2018-12-04T12:04:16.149Z,83.58
2018-12-04T12:05:16.146Z,84
2018-12-04T12:06:16.386Z,84.27
2018-12-04T12:07:20.845Z,84.16
2018-12-04T12:08:16.078Z,85.08
2018-12-04T12:09:16.209Z,84.14
2018-12-04T12:10:16.324Z,84.62
2018-12-04T12:11:16.077Z,84.87
2018-12-04T12:12:16.257Z,85.24
2018-12-04T12:13:16.918Z,85.71
2018-12-04T12:14:16.296Z,85.82
2018-12-04T12:15:19.835Z,86.35
2018-12-04T12:16:16.085Z,85.23
2018-12-04T12:17:16.054Z,85.22
2018-12-04T12:18:16.265Z,85.44
2018-12-04T12:19:16.217Z,85.62
2018-12-04T12:20:16.075Z,85.81
2018-12-04T12:21:16.132Z,85.3
2018-12-04T12:22:16.155Z,85.86
2018-12-04T12:23:16.361Z,86.11
2018-12-04T12:24:16.347Z,85.4
2018-12-04T12:25:16.049Z,85.76
2018-12-04T12:26:16.221Z,85.58
2018-12-04T12:27:16.094Z,85.73
2018-12-04T12:28:16.855Z,86.11
2018-12-04T12:29:16.430Z,85.58
2018-12-04T12:30:16.581Z,86.02
2018-12-04T12:31:16.196Z,86.03
2018-12-04T12:32:16.206Z,85.56
2018-12-04T12:33:16.232Z,85.63
2018-12-04T12:34:16.289Z,85.94
2018-12-04T12:35:16.126Z,85.65
2018-12-04T12:36:16.198Z,85.38
2018-12-04T12:37:16.912Z,85.68
2018-12-04T12:38:16.202Z,85.71
2018-12-04T12:39:16.118Z,84.8
2018-12-04T12:40:16.176Z,84.81
2018-12-04T12:41:16.226Z,85.05
2018-12-04T12:42:16.125Z,85.19
2018-12-04T12:43:16.276Z,85.51
2018-12-04T12:44:16.100Z,85.92
2018-12-04T12:45:16.205Z,85.88
2018-12-04T12:46:16.187Z,85.69
2018-12-04T12:47:16.198Z,85.94
2018-12-04T12:48:16.240Z,86.06
2018-12-04T12:49:16.041Z,85.9
2018-12-04T12:50:16.872Z,86.25
2018-12-04T12:51:16.123Z,86.38
2018-12-04T12:52:16.051Z,85.88
2018-12-04T12:53:16.184Z,86.1
2018-12-04T12:54:16.174Z,86.3
2018-12-04T12:55:16.078Z,86.49